Главная страница
METAR-TAF:

METAR-TAF

Аэропорты :

Лагос, Нигерия

Международный аэропорт имени Мурталы Мухаммеда

широта: 06-35N, долгота: 003-20E, высота над уровнем моря: 40 м

Текущие метеонаблюдения

Эта сводка был подготовлена 21 минут назад, в 02:00 UTC
Ветер 2 Узел переменных направлений
Температура 25°C
Влажность 94%
Давление 1011 hPa
Видимость: 7000 м

METAR: DNMM 230200Z VRB02KT 7000 NSC 25/24 Q1011 NOSIG

Время: 03:21 (02:21 UTC)

Прогноз

Эта сводка был подготовлена 4 часа и 51 минут назад, в 21:30 UTC
Прогноз действительный с 23-го 00 UTC до 24-го 06 UTC
Ветер 2 Узел переменных направлений
Видимость: 8000 м
небольшая облачность на высоте 1000 фута
временами
С 23-го 05 UTC до 23-го 08 UTC
Видимость: 5000 м
мгла
Вероятность 30%
С 23-го 06 UTC до 23-го 07 UTC
Видимость: 3000 м
дымка
изменения
С 23-го 10 UTC до 23-го 12 UTC
Рассеянная облачность на высоте 1400 фута

TAF: DNMM 222130Z 2300/2406 VRB02KT 8000 FEW010 TEMPO 2305/2308 5000 HZ PROB30 2306/2307 3000 BR BECMG 2310/2312 BKN014

Метеонаблюдения и прогнозы для более 4000 аэропортов (сводки METAR и TAF).

Имеющиеся станции представлены на карте желтыми и красными точками.

Чтобы увидеть название станции, наведите на нее мышь.

Затем щелкните, чтобы увидеть метеонаблюдения и метеопрогнозы.

Управление картой: чтобы увеличить масштаб, щелкните зеленые кнопки с черным крестиком; чтобы уменьшить масштаб, щелкните зеленую кнопку с тире; для просмотра соседних карт щелкайте зеленые стрелки.


METAR-TAF: